sensor_id;sensor_type;location;lat;lon;timestamp;P1;durP1;ratioP1;P2;durP2;ratioP2
46288;SDS011;63105;46.158;14.604;2022-12-07T00:01:32;21.23;;;14.95;;
46288;SDS011;63105;46.158;14.604;2022-12-07T00:03:59;19.02;;;13.40;;
46288;SDS011;63105;46.158;14.604;2022-12-07T00:06:41;17.88;;;12.50;;
46288;SDS011;63105;46.158;14.604;2022-12-07T00:09:07;15.43;;;11.52;;
46288;SDS011;63105;46.158;14.604;2022-12-07T00:11:32;20.77;;;14.82;;
46288;SDS011;63105;46.158;14.604;2022-12-07T00:13:59;22.40;;;14.98;;
46288;SDS011;63105;46.158;14.604;2022-12-07T00:16:26;17.90;;;13.05;;
46288;SDS011;63105;46.158;14.604;2022-12-07T00:18:51;22.52;;;15.38;;
46288;SDS011;63105;46.158;14.604;2022-12-07T00:21:18;17.90;;;12.68;;
46288;SDS011;63105;46.158;14.604;2022-12-07T00:23:44;19.02;;;13.88;;
46288;SDS011;63105;46.158;14.604;2022-12-07T00:26:14;16.83;;;12.63;;
46288;SDS011;63105;46.158;14.604;2022-12-07T00:28:40;18.88;;;13.15;;
46288;SDS011;63105;46.158;14.604;2022-12-07T00:31:09;18.52;;;14.13;;
46288;SDS011;63105;46.158;14.604;2022-12-07T00:33:35;17.52;;;12.30;;
46288;SDS011;63105;46.158;14.604;2022-12-07T00:36:01;16.35;;;11.15;;
46288;SDS011;63105;46.158;14.604;2022-12-07T00:38:27;16.13;;;11.77;;
46288;SDS011;63105;46.158;14.604;2022-12-07T00:40:56;16.13;;;11.18;;
46288;SDS011;63105;46.158;14.604;2022-12-07T00:43:21;17.75;;;12.32;;
46288;SDS011;63105;46.158;14.604;2022-12-07T00:45:47;17.65;;;13.43;;
46288;SDS011;63105;46.158;14.604;2022-12-07T00:48:12;17.02;;;11.57;;
46288;SDS011;63105;46.158;14.604;2022-12-07T00:50:37;15.55;;;11.10;;
46288;SDS011;63105;46.158;14.604;2022-12-07T00:53:02;17.15;;;11.98;;
46288;SDS011;63105;46.158;14.604;2022-12-07T00:55:28;16.23;;;11.73;;
46288;SDS011;63105;46.158;14.604;2022-12-07T00:57:53;17.00;;;12.18;;
46288;SDS011;63105;46.158;14.604;2022-12-07T01:00:18;17.05;;;11.73;;
46288;SDS011;63105;46.158;14.604;2022-12-07T01:02:43;17.20;;;12.00;;
46288;SDS011;63105;46.158;14.604;2022-12-07T01:05:08;15.70;;;11.75;;
46288;SDS011;63105;46.158;14.604;2022-12-07T01:07:34;17.33;;;11.88;;
46288;SDS011;63105;46.158;14.604;2022-12-07T01:09:59;15.18;;;11.45;;
46288;SDS011;63105;46.158;14.604;2022-12-07T01:12:24;24.63;;;16.83;;
46288;SDS011;63105;46.158;14.604;2022-12-07T01:14:49;20.35;;;14.27;;
46288;SDS011;63105;46.158;14.604;2022-12-07T01:17:14;19.05;;;13.15;;
46288;SDS011;63105;46.158;14.604;2022-12-07T01:19:40;17.48;;;13.02;;
46288;SDS011;63105;46.158;14.604;2022-12-07T01:22:05;17.67;;;13.75;;
46288;SDS011;63105;46.158;14.604;2022-12-07T01:24:30;17.10;;;12.10;;
46288;SDS011;63105;46.158;14.604;2022-12-07T01:26:55;16.65;;;11.70;;
46288;SDS011;63105;46.158;14.604;2022-12-07T01:29:20;17.45;;;12.90;;
46288;SDS011;63105;46.158;14.604;2022-12-07T01:31:48;15.80;;;12.15;;
46288;SDS011;63105;46.158;14.604;2022-12-07T01:34:13;14.90;;;10.38;;
46288;SDS011;63105;46.158;14.604;2022-12-07T01:36:38;14.38;;;10.35;;
46288;SDS011;63105;46.158;14.604;2022-12-07T01:39:05;16.30;;;10.70;;
46288;SDS011;63105;46.158;14.604;2022-12-07T01:41:32;14.07;;;10.15;;
46288;SDS011;63105;46.158;14.604;2022-12-07T01:46:31;13.48;;;8.98;;
46288;SDS011;63105;46.158;14.604;2022-12-07T01:48:57;13.18;;;9.20;;
46288;SDS011;63105;46.158;14.604;2022-12-07T01:51:22;14.40;;;9.55;;
46288;SDS011;63105;46.158;14.604;2022-12-07T01:53:47;13.80;;;9.60;;
46288;SDS011;63105;46.158;14.604;2022-12-07T01:56:14;12.40;;;8.70;;
46288;SDS011;63105;46.158;14.604;2022-12-07T01:58:42;13.27;;;8.70;;
46288;SDS011;63105;46.158;14.604;2022-12-07T02:01:07;13.50;;;8.82;;
46288;SDS011;63105;46.158;14.604;2022-12-07T02:03:39;12.63;;;8.82;;
46288;SDS011;63105;46.158;14.604;2022-12-07T02:06:05;12.48;;;8.57;;
46288;SDS011;63105;46.158;14.604;2022-12-07T02:08:31;11.48;;;7.65;;
46288;SDS011;63105;46.158;14.604;2022-12-07T02:10:57;11.30;;;7.95;;
46288;SDS011;63105;46.158;14.604;2022-12-07T02:13:23;10.70;;;7.18;;
46288;SDS011;63105;46.158;14.604;2022-12-07T02:18:40;11.23;;;7.55;;
46288;SDS011;63105;46.158;14.604;2022-12-07T02:31:27;10.40;;;7.05;;
46288;SDS011;63105;46.158;14.604;2022-12-07T02:34:05;11.52;;;6.95;;
46288;SDS011;63105;46.158;14.604;2022-12-07T02:36:34;10.73;;;7.40;;
46288;SDS011;63105;46.158;14.604;2022-12-07T02:39:11;11.15;;;7.70;;
46288;SDS011;63105;46.158;14.604;2022-12-07T02:41:43;9.65;;;6.30;;
46288;SDS011;63105;46.158;14.604;2022-12-07T02:44:11;9.20;;;5.88;;
46288;SDS011;63105;46.158;14.604;2022-12-07T02:46:42;8.75;;;6.28;;
46288;SDS011;63105;46.158;14.604;2022-12-07T02:49:07;9.63;;;6.25;;
46288;SDS011;63105;46.158;14.604;2022-12-07T02:51:33;8.77;;;5.85;;
46288;SDS011;63105;46.158;14.604;2022-12-07T02:54:07;8.82;;;5.50;;
46288;SDS011;63105;46.158;14.604;2022-12-07T02:56:43;7.75;;;5.25;;
46288;SDS011;63105;46.158;14.604;2022-12-07T02:59:19;8.60;;;5.50;;
46288;SDS011;63105;46.158;14.604;2022-12-07T03:09:45;8.25;;;5.63;;
46288;SDS011;63105;46.158;14.604;2022-12-07T03:12:18;8.68;;;5.53;;
46288;SDS011;63105;46.158;14.604;2022-12-07T03:14:47;8.23;;;5.43;;
46288;SDS011;63105;46.158;14.604;2022-12-07T03:17:24;8.48;;;5.43;;
46288;SDS011;63105;46.158;14.604;2022-12-07T03:19:51;7.88;;;5.10;;
46288;SDS011;63105;46.158;14.604;2022-12-07T03:22:18;7.70;;;5.13;;
46288;SDS011;63105;46.158;14.604;2022-12-07T03:27:11;9.77;;;5.90;;
46288;SDS011;63105;46.158;14.604;2022-12-07T03:29:39;8.75;;;5.30;;
46288;SDS011;63105;46.158;14.604;2022-12-07T03:32:06;7.35;;;4.72;;
46288;SDS011;63105;46.158;14.604;2022-12-07T03:34:39;8.40;;;5.05;;
46288;SDS011;63105;46.158;14.604;2022-12-07T03:37:07;7.00;;;4.18;;
46288;SDS011;63105;46.158;14.604;2022-12-07T03:39:54;8.73;;;5.45;;
46288;SDS011;63105;46.158;14.604;2022-12-07T03:42:22;8.73;;;5.28;;
46288;SDS011;63105;46.158;14.604;2022-12-07T03:44:47;6.90;;;4.60;;
46288;SDS011;63105;46.158;14.604;2022-12-07T03:47:15;7.97;;;4.85;;
46288;SDS011;63105;46.158;14.604;2022-12-07T03:52:40;8.15;;;4.82;;
46288;SDS011;63105;46.158;14.604;2022-12-07T03:57:23;7.57;;;4.60;;
46288;SDS011;63105;46.158;14.604;2022-12-07T03:59:49;8.00;;;4.78;;
46288;SDS011;63105;46.158;14.604;2022-12-07T04:02:15;6.82;;;4.40;;
46288;SDS011;63105;46.158;14.604;2022-12-07T04:04:40;8.43;;;5.20;;
46288;SDS011;63105;46.158;14.604;2022-12-07T04:07:06;6.72;;;4.35;;
46288;SDS011;63105;46.158;14.604;2022-12-07T04:09:31;8.15;;;4.47;;
46288;SDS011;63105;46.158;14.604;2022-12-07T04:11:56;8.15;;;5.00;;
46288;SDS011;63105;46.158;14.604;2022-12-07T04:14:22;7.30;;;4.40;;
46288;SDS011;63105;46.158;14.604;2022-12-07T04:16:48;6.60;;;4.22;;
46288;SDS011;63105;46.158;14.604;2022-12-07T04:19:14;8.50;;;4.93;;
46288;SDS011;63105;46.158;14.604;2022-12-07T04:21:39;10.52;;;5.70;;
46288;SDS011;63105;46.158;14.604;2022-12-07T04:24:05;10.13;;;5.90;;
46288;SDS011;63105;46.158;14.604;2022-12-07T04:26:30;6.20;;;3.53;;
46288;SDS011;63105;46.158;14.604;2022-12-07T04:28:55;7.55;;;4.38;;
46288;SDS011;63105;46.158;14.604;2022-12-07T04:31:21;8.02;;;4.00;;
46288;SDS011;63105;46.158;14.604;2022-12-07T04:33:46;6.40;;;3.80;;
46288;SDS011;63105;46.158;14.604;2022-12-07T04:36:11;6.43;;;4.00;;
46288;SDS011;63105;46.158;14.604;2022-12-07T04:38:36;6.00;;;3.83;;
46288;SDS011;63105;46.158;14.604;2022-12-07T04:41:08;8.13;;;4.00;;
46288;SDS011;63105;46.158;14.604;2022-12-07T04:43:34;7.03;;;3.90;;
46288;SDS011;63105;46.158;14.604;2022-12-07T04:45:59;5.88;;;3.30;;
46288;SDS011;63105;46.158;14.604;2022-12-07T04:48:25;6.70;;;3.70;;
46288;SDS011;63105;46.158;14.604;2022-12-07T04:50:50;5.03;;;3.15;;
46288;SDS011;63105;46.158;14.604;2022-12-07T04:53:15;5.80;;;3.47;;
46288;SDS011;63105;46.158;14.604;2022-12-07T04:55:40;5.13;;;2.97;;
46288;SDS011;63105;46.158;14.604;2022-12-07T04:58:06;6.28;;;3.60;;
46288;SDS011;63105;46.158;14.604;2022-12-07T05:00:31;6.22;;;3.42;;
46288;SDS011;63105;46.158;14.604;2022-12-07T05:02:56;7.35;;;3.70;;
46288;SDS011;63105;46.158;14.604;2022-12-07T05:05:22;6.55;;;3.60;;
46288;SDS011;63105;46.158;14.604;2022-12-07T05:07:47;8.27;;;4.88;;
46288;SDS011;63105;46.158;14.604;2022-12-07T05:10:12;7.55;;;4.88;;
46288;SDS011;63105;46.158;14.604;2022-12-07T05:12:37;7.60;;;4.22;;
46288;SDS011;63105;46.158;14.604;2022-12-07T05:15:03;6.90;;;3.70;;
46288;SDS011;63105;46.158;14.604;2022-12-07T05:17:29;5.50;;;3.58;;
46288;SDS011;63105;46.158;14.604;2022-12-07T05:19:54;6.90;;;4.00;;
46288;SDS011;63105;46.158;14.604;2022-12-07T05:22:19;7.90;;;4.20;;
46288;SDS011;63105;46.158;14.604;2022-12-07T05:24:45;6.85;;;3.75;;
46288;SDS011;63105;46.158;14.604;2022-12-07T05:27:10;7.10;;;3.95;;
46288;SDS011;63105;46.158;14.604;2022-12-07T05:29:35;6.88;;;3.75;;
46288;SDS011;63105;46.158;14.604;2022-12-07T05:32:00;5.65;;;3.45;;
46288;SDS011;63105;46.158;14.604;2022-12-07T05:34:26;5.68;;;3.53;;
46288;SDS011;63105;46.158;14.604;2022-12-07T05:36:51;6.30;;;3.67;;
46288;SDS011;63105;46.158;14.604;2022-12-07T05:39:16;5.10;;;3.25;;
46288;SDS011;63105;46.158;14.604;2022-12-07T05:41:41;6.95;;;4.18;;
46288;SDS011;63105;46.158;14.604;2022-12-07T05:44:25;7.00;;;4.07;;
46288;SDS011;63105;46.158;14.604;2022-12-07T05:46:51;5.60;;;3.55;;
46288;SDS011;63105;46.158;14.604;2022-12-07T05:49:16;6.78;;;3.63;;
46288;SDS011;63105;46.158;14.604;2022-12-07T05:51:41;7.18;;;4.28;;
46288;SDS011;63105;46.158;14.604;2022-12-07T05:54:06;6.43;;;3.80;;
46288;SDS011;63105;46.158;14.604;2022-12-07T05:56:31;6.68;;;4.45;;
46288;SDS011;63105;46.158;14.604;2022-12-07T05:58:57;5.65;;;3.45;;
46288;SDS011;63105;46.158;14.604;2022-12-07T06:01:41;5.53;;;3.42;;
46288;SDS011;63105;46.158;14.604;2022-12-07T06:04:06;6.40;;;3.80;;
46288;SDS011;63105;46.158;14.604;2022-12-07T06:06:31;7.80;;;3.63;;
46288;SDS011;63105;46.158;14.604;2022-12-07T06:08:57;5.95;;;3.80;;
46288;SDS011;63105;46.158;14.604;2022-12-07T06:11:22;5.85;;;3.70;;
46288;SDS011;63105;46.158;14.604;2022-12-07T06:14:06;6.13;;;3.42;;
46288;SDS011;63105;46.158;14.604;2022-12-07T06:16:31;6.13;;;4.22;;
46288;SDS011;63105;46.158;14.604;2022-12-07T06:18:56;7.22;;;4.85;;
46288;SDS011;63105;46.158;14.604;2022-12-07T06:21:21;9.75;;;5.70;;
46288;SDS011;63105;46.158;14.604;2022-12-07T06:23:47;8.27;;;4.45;;
46288;SDS011;63105;46.158;14.604;2022-12-07T06:26:13;10.60;;;7.00;;
46288;SDS011;63105;46.158;14.604;2022-12-07T06:28:38;8.75;;;5.90;;
46288;SDS011;63105;46.158;14.604;2022-12-07T06:31:03;11.73;;;7.60;;
46288;SDS011;63105;46.158;14.604;2022-12-07T06:33:28;8.80;;;5.68;;
46288;SDS011;63105;46.158;14.604;2022-12-07T06:35:54;14.60;;;8.32;;
46288;SDS011;63105;46.158;14.604;2022-12-07T06:38:19;10.68;;;6.88;;
46288;SDS011;63105;46.158;14.604;2022-12-07T06:40:45;10.05;;;5.88;;
46288;SDS011;63105;46.158;14.604;2022-12-07T06:43:10;9.80;;;5.72;;
46288;SDS011;63105;46.158;14.604;2022-12-07T06:45:35;8.38;;;5.07;;
46288;SDS011;63105;46.158;14.604;2022-12-07T06:48:00;8.68;;;5.78;;
46288;SDS011;63105;46.158;14.604;2022-12-07T06:50:26;11.25;;;5.78;;
46288;SDS011;63105;46.158;14.604;2022-12-07T06:52:51;8.75;;;5.10;;
46288;SDS011;63105;46.158;14.604;2022-12-07T06:55:17;7.47;;;4.47;;
46288;SDS011;63105;46.158;14.604;2022-12-07T06:57:42;9.57;;;4.93;;
46288;SDS011;63105;46.158;14.604;2022-12-07T07:00:07;6.57;;;4.45;;
46288;SDS011;63105;46.158;14.604;2022-12-07T07:02:33;13.80;;;8.93;;
46288;SDS011;63105;46.158;14.604;2022-12-07T07:04:58;10.88;;;6.05;;
46288;SDS011;63105;46.158;14.604;2022-12-07T07:07:23;9.35;;;5.57;;
46288;SDS011;63105;46.158;14.604;2022-12-07T07:09:48;11.00;;;5.95;;
46288;SDS011;63105;46.158;14.604;2022-12-07T07:12:14;15.55;;;10.02;;
46288;SDS011;63105;46.158;14.604;2022-12-07T07:14:39;11.57;;;7.47;;
46288;SDS011;63105;46.158;14.604;2022-12-07T07:17:04;9.82;;;6.07;;
46288;SDS011;63105;46.158;14.604;2022-12-07T07:19:29;12.05;;;8.13;;
46288;SDS011;63105;46.158;14.604;2022-12-07T07:21:55;10.38;;;6.55;;
46288;SDS011;63105;46.158;14.604;2022-12-07T07:24:20;10.00;;;6.03;;
46288;SDS011;63105;46.158;14.604;2022-12-07T07:26:45;9.85;;;5.90;;
46288;SDS011;63105;46.158;14.604;2022-12-07T07:29:10;10.70;;;6.20;;
46288;SDS011;63105;46.158;14.604;2022-12-07T07:31:35;9.50;;;6.10;;
46288;SDS011;63105;46.158;14.604;2022-12-07T07:34:02;11.55;;;7.10;;
46288;SDS011;63105;46.158;14.604;2022-12-07T07:36:27;10.18;;;7.10;;
46288;SDS011;63105;46.158;14.604;2022-12-07T07:38:52;9.65;;;6.38;;
46288;SDS011;63105;46.158;14.604;2022-12-07T07:41:17;14.93;;;10.18;;
46288;SDS011;63105;46.158;14.604;2022-12-07T07:43:43;13.13;;;8.40;;
46288;SDS011;63105;46.158;14.604;2022-12-07T07:46:08;10.90;;;7.57;;
46288;SDS011;63105;46.158;14.604;2022-12-07T07:48:33;14.48;;;9.65;;
46288;SDS011;63105;46.158;14.604;2022-12-07T07:50:58;16.27;;;11.13;;
46288;SDS011;63105;46.158;14.604;2022-12-07T07:53:24;23.60;;;15.52;;
46288;SDS011;63105;46.158;14.604;2022-12-07T07:55:53;14.20;;;9.93;;
46288;SDS011;63105;46.158;14.604;2022-12-07T07:58:18;16.90;;;11.00;;
46288;SDS011;63105;46.158;14.604;2022-12-07T08:00:43;15.98;;;10.70;;
46288;SDS011;63105;46.158;14.604;2022-12-07T08:03:09;22.38;;;13.75;;
46288;SDS011;63105;46.158;14.604;2022-12-07T08:05:34;13.90;;;9.40;;
46288;SDS011;63105;46.158;14.604;2022-12-07T08:08:01;34.13;;;19.08;;
46288;SDS011;63105;46.158;14.604;2022-12-07T08:10:26;23.42;;;15.55;;
46288;SDS011;63105;46.158;14.604;2022-12-07T08:12:51;27.23;;;18.10;;
46288;SDS011;63105;46.158;14.604;2022-12-07T08:15:35;22.83;;;14.60;;
46288;SDS011;63105;46.158;14.604;2022-12-07T08:18:01;25.20;;;14.52;;
46288;SDS011;63105;46.158;14.604;2022-12-07T08:20:26;26.15;;;16.30;;
46288;SDS011;63105;46.158;14.604;2022-12-07T08:22:51;20.00;;;13.15;;
46288;SDS011;63105;46.158;14.604;2022-12-07T08:25:17;20.80;;;13.00;;
46288;SDS011;63105;46.158;14.604;2022-12-07T08:27:42;26.08;;;16.00;;
46288;SDS011;63105;46.158;14.604;2022-12-07T08:30:07;24.38;;;15.23;;
46288;SDS011;63105;46.158;14.604;2022-12-07T08:32:32;28.50;;;16.48;;
46288;SDS011;63105;46.158;14.604;2022-12-07T08:34:58;24.27;;;15.23;;
46288;SDS011;63105;46.158;14.604;2022-12-07T08:37:23;27.67;;;16.73;;
46288;SDS011;63105;46.158;14.604;2022-12-07T08:39:48;20.98;;;14.02;;
46288;SDS011;63105;46.158;14.604;2022-12-07T08:42:13;21.02;;;13.65;;
46288;SDS011;63105;46.158;14.604;2022-12-07T08:44:38;24.38;;;14.77;;
46288;SDS011;63105;46.158;14.604;2022-12-07T08:47:05;20.90;;;13.52;;
46288;SDS011;63105;46.158;14.604;2022-12-07T08:49:32;26.17;;;16.33;;
46288;SDS011;63105;46.158;14.604;2022-12-07T08:51:59;19.25;;;11.80;;
46288;SDS011;63105;46.158;14.604;2022-12-07T08:54:24;19.30;;;12.82;;
46288;SDS011;63105;46.158;14.604;2022-12-07T08:56:49;18.38;;;12.18;;
46288;SDS011;63105;46.158;14.604;2022-12-07T08:59:16;23.65;;;14.35;;
46288;SDS011;63105;46.158;14.604;2022-12-07T09:01:42;21.50;;;13.85;;
46288;SDS011;63105;46.158;14.604;2022-12-07T09:04:08;22.67;;;13.88;;
46288;SDS011;63105;46.158;14.604;2022-12-07T09:06:33;18.67;;;11.65;;
46288;SDS011;63105;46.158;14.604;2022-12-07T09:08:58;20.38;;;13.15;;
46288;SDS011;63105;46.158;14.604;2022-12-07T09:11:25;20.05;;;11.70;;
46288;SDS011;63105;46.158;14.604;2022-12-07T09:13:50;21.15;;;13.25;;
46288;SDS011;63105;46.158;14.604;2022-12-07T09:16:15;24.33;;;13.93;;
46288;SDS011;63105;46.158;14.604;2022-12-07T09:18:40;30.27;;;19.02;;
46288;SDS011;63105;46.158;14.604;2022-12-07T09:21:06;26.13;;;17.30;;
46288;SDS011;63105;46.158;14.604;2022-12-07T09:23:32;22.90;;;14.52;;
46288;SDS011;63105;46.158;14.604;2022-12-07T09:26:00;21.70;;;13.88;;
46288;SDS011;63105;46.158;14.604;2022-12-07T09:28:26;24.75;;;15.50;;
46288;SDS011;63105;46.158;14.604;2022-12-07T09:30:51;26.13;;;16.25;;
46288;SDS011;63105;46.158;14.604;2022-12-07T09:33:17;20.48;;;14.27;;
46288;SDS011;63105;46.158;14.604;2022-12-07T09:35:45;18.50;;;12.48;;
46288;SDS011;63105;46.158;14.604;2022-12-07T09:38:11;17.50;;;11.77;;
46288;SDS011;63105;46.158;14.604;2022-12-07T09:40:36;17.20;;;11.02;;
46288;SDS011;63105;46.158;14.604;2022-12-07T09:43:01;14.93;;;9.77;;
46288;SDS011;63105;46.158;14.604;2022-12-07T09:45:28;13.85;;;9.77;;
46288;SDS011;63105;46.158;14.604;2022-12-07T09:47:55;17.38;;;12.10;;
46288;SDS011;63105;46.158;14.604;2022-12-07T09:50:26;15.57;;;10.63;;
46288;SDS011;63105;46.158;14.604;2022-12-07T09:52:52;12.30;;;9.43;;
46288;SDS011;63105;46.158;14.604;2022-12-07T09:55:19;11.07;;;7.72;;
46288;SDS011;63105;46.158;14.604;2022-12-07T09:57:46;13.10;;;9.48;;
46288;SDS011;63105;46.158;14.604;2022-12-07T10:00:15;14.18;;;9.82;;
46288;SDS011;63105;46.158;14.604;2022-12-07T10:02:42;14.25;;;9.38;;
46288;SDS011;63105;46.158;14.604;2022-12-07T10:05:15;15.35;;;8.52;;
46288;SDS011;63105;46.158;14.604;2022-12-07T10:07:41;14.02;;;8.77;;
46288;SDS011;63105;46.158;14.604;2022-12-07T10:10:12;14.38;;;8.27;;
46288;SDS011;63105;46.158;14.604;2022-12-07T10:12:58;12.30;;;8.57;;
46288;SDS011;63105;46.158;14.604;2022-12-07T10:15:38;14.35;;;8.00;;
46288;SDS011;63105;46.158;14.604;2022-12-07T10:18:13;12.77;;;8.63;;
46288;SDS011;63105;46.158;14.604;2022-12-07T10:20:41;14.32;;;10.07;;
46288;SDS011;63105;46.158;14.604;2022-12-07T10:23:08;10.98;;;7.30;;
46288;SDS011;63105;46.158;14.604;2022-12-07T10:25:38;10.27;;;6.50;;
46288;SDS011;63105;46.158;14.604;2022-12-07T10:30:45;10.10;;;6.85;;
46288;SDS011;63105;46.158;14.604;2022-12-07T10:33:27;13.60;;;7.97;;
46288;SDS011;63105;46.158;14.604;2022-12-07T10:35:53;12.07;;;8.32;;
46288;SDS011;63105;46.158;14.604;2022-12-07T10:38:18;17.70;;;13.18;;
46288;SDS011;63105;46.158;14.604;2022-12-07T10:40:43;12.23;;;9.02;;
46288;SDS011;63105;46.158;14.604;2022-12-07T10:48:23;14.70;;;11.50;;
46288;SDS011;63105;46.158;14.604;2022-12-07T11:06:16;37.10;;;19.85;;
46288;SDS011;63105;46.158;14.604;2022-12-07T11:11:30;21.17;;;11.23;;
46288;SDS011;63105;46.158;14.604;2022-12-07T11:21:40;13.70;;;9.88;;
46288;SDS011;63105;46.158;14.604;2022-12-07T11:24:16;13.57;;;9.23;;
46288;SDS011;63105;46.158;14.604;2022-12-07T11:29:34;11.00;;;7.32;;
46288;SDS011;63105;46.158;14.604;2022-12-07T11:32:13;13.77;;;8.73;;
46288;SDS011;63105;46.158;14.604;2022-12-07T11:34:43;13.77;;;7.85;;
46288;SDS011;63105;46.158;14.604;2022-12-07T11:37:12;10.10;;;6.97;;
46288;SDS011;63105;46.158;14.604;2022-12-07T11:39:50;10.80;;;6.90;;
46288;SDS011;63105;46.158;14.604;2022-12-07T11:42:27;10.65;;;7.22;;
46288;SDS011;63105;46.158;14.604;2022-12-07T11:54:51;7.85;;;5.60;;
46288;SDS011;63105;46.158;14.604;2022-12-07T11:57:20;8.27;;;5.40;;
46288;SDS011;63105;46.158;14.604;2022-12-07T11:59:52;5.95;;;3.80;;
46288;SDS011;63105;46.158;14.604;2022-12-07T12:02:20;8.30;;;5.25;;
46288;SDS011;63105;46.158;14.604;2022-12-07T12:04:59;6.78;;;4.47;;
46288;SDS011;63105;46.158;14.604;2022-12-07T12:07:27;7.60;;;4.90;;
46288;SDS011;63105;46.158;14.604;2022-12-07T12:09:54;7.90;;;5.13;;
46288;SDS011;63105;46.158;14.604;2022-12-07T12:17:47;8.75;;;4.70;;
46288;SDS011;63105;46.158;14.604;2022-12-07T12:22:43;6.68;;;4.13;;
46288;SDS011;63105;46.158;14.604;2022-12-07T12:25:20;6.63;;;4.53;;
46288;SDS011;63105;46.158;14.604;2022-12-07T12:27:46;6.75;;;4.57;;
46288;SDS011;63105;46.158;14.604;2022-12-07T12:30:32;7.05;;;4.40;;
46288;SDS011;63105;46.158;14.604;2022-12-07T12:33:01;7.57;;;4.50;;
46288;SDS011;63105;46.158;14.604;2022-12-07T12:35:31;6.00;;;3.90;;
46288;SDS011;63105;46.158;14.604;2022-12-07T12:38:39;7.07;;;4.10;;
46288;SDS011;63105;46.158;14.604;2022-12-07T12:40:45;7.35;;;4.75;;
46288;SDS011;63105;46.158;14.604;2022-12-07T12:51:48;9.18;;;6.28;;
46288;SDS011;63105;46.158;14.604;2022-12-07T12:54:15;11.85;;;7.97;;
46288;SDS011;63105;46.158;14.604;2022-12-07T12:56:42;12.38;;;7.20;;
46288;SDS011;63105;46.158;14.604;2022-12-07T12:59:43;9.50;;;6.85;;
46288;SDS011;63105;46.158;14.604;2022-12-07T13:05:01;10.18;;;7.35;;
46288;SDS011;63105;46.158;14.604;2022-12-07T13:12:55;9.05;;;5.88;;
46288;SDS011;63105;46.158;14.604;2022-12-07T13:18:21;8.57;;;6.28;;
46288;SDS011;63105;46.158;14.604;2022-12-07T13:23:20;12.38;;;8.98;;
46288;SDS011;63105;46.158;14.604;2022-12-07T13:25:51;9.00;;;5.90;;
46288;SDS011;63105;46.158;14.604;2022-12-07T13:28:19;10.98;;;7.90;;
46288;SDS011;63105;46.158;14.604;2022-12-07T13:31:32;9.18;;;7.18;;
46288;SDS011;63105;46.158;14.604;2022-12-07T13:33:30;8.57;;;5.38;;
46288;SDS011;63105;46.158;14.604;2022-12-07T13:35:59;10.45;;;7.40;;
46288;SDS011;63105;46.158;14.604;2022-12-07T13:38:27;8.65;;;5.97;;
46288;SDS011;63105;46.158;14.604;2022-12-07T13:41:03;9.18;;;6.03;;
46288;SDS011;63105;46.158;14.604;2022-12-07T13:43:28;10.85;;;6.60;;
46288;SDS011;63105;46.158;14.604;2022-12-07T13:45:57;7.85;;;5.90;;
46288;SDS011;63105;46.158;14.604;2022-12-07T13:48:33;8.55;;;5.78;;
46288;SDS011;63105;46.158;14.604;2022-12-07T13:51:00;8.30;;;5.75;;
46288;SDS011;63105;46.158;14.604;2022-12-07T13:53:26;8.38;;;5.60;;
46288;SDS011;63105;46.158;14.604;2022-12-07T13:55:55;11.25;;;6.65;;
46288;SDS011;63105;46.158;14.604;2022-12-07T13:58:21;9.43;;;6.28;;
46288;SDS011;63105;46.158;14.604;2022-12-07T14:00:47;8.65;;;5.95;;
46288;SDS011;63105;46.158;14.604;2022-12-07T14:05:38;12.40;;;7.37;;
46288;SDS011;63105;46.158;14.604;2022-12-07T14:08:04;14.77;;;8.90;;
46288;SDS011;63105;46.158;14.604;2022-12-07T14:12:56;16.13;;;9.40;;
46288;SDS011;63105;46.158;14.604;2022-12-07T14:15:22;12.30;;;8.80;;
46288;SDS011;63105;46.158;14.604;2022-12-07T14:17:51;13.43;;;8.90;;
46288;SDS011;63105;46.158;14.604;2022-12-07T14:22:56;15.52;;;9.57;;
46288;SDS011;63105;46.158;14.604;2022-12-07T14:25:27;14.05;;;9.88;;
46288;SDS011;63105;46.158;14.604;2022-12-07T14:27:56;15.75;;;10.38;;
46288;SDS011;63105;46.158;14.604;2022-12-07T14:30:24;14.90;;;9.82;;
46288;SDS011;63105;46.158;14.604;2022-12-07T14:32:51;13.98;;;9.65;;
46288;SDS011;63105;46.158;14.604;2022-12-07T14:35:17;16.98;;;10.40;;
46288;SDS011;63105;46.158;14.604;2022-12-07T14:37:44;13.15;;;9.88;;
46288;SDS011;63105;46.158;14.604;2022-12-07T14:40:14;16.23;;;10.52;;
46288;SDS011;63105;46.158;14.604;2022-12-07T14:42:39;14.43;;;9.85;;
46288;SDS011;63105;46.158;14.604;2022-12-07T14:45:05;16.83;;;11.82;;
46288;SDS011;63105;46.158;14.604;2022-12-07T14:47:31;15.88;;;11.25;;
46288;SDS011;63105;46.158;14.604;2022-12-07T14:49:56;15.90;;;10.90;;
46288;SDS011;63105;46.158;14.604;2022-12-07T14:52:23;19.17;;;12.68;;
46288;SDS011;63105;46.158;14.604;2022-12-07T14:54:49;18.77;;;11.88;;
46288;SDS011;63105;46.158;14.604;2022-12-07T14:57:14;19.20;;;13.57;;
46288;SDS011;63105;46.158;14.604;2022-12-07T14:59:40;18.95;;;11.73;;
46288;SDS011;63105;46.158;14.604;2022-12-07T15:02:05;19.50;;;12.88;;
46288;SDS011;63105;46.158;14.604;2022-12-07T15:04:31;19.40;;;13.13;;
46288;SDS011;63105;46.158;14.604;2022-12-07T15:07:01;20.63;;;12.55;;
46288;SDS011;63105;46.158;14.604;2022-12-07T15:09:26;20.75;;;13.25;;
46288;SDS011;63105;46.158;14.604;2022-12-07T15:11:51;20.77;;;12.65;;
46288;SDS011;63105;46.158;14.604;2022-12-07T15:14:17;18.00;;;11.95;;
46288;SDS011;63105;46.158;14.604;2022-12-07T15:16:42;17.25;;;12.82;;
46288;SDS011;63105;46.158;14.604;2022-12-07T15:19:15;18.83;;;12.77;;
46288;SDS011;63105;46.158;14.604;2022-12-07T15:21:41;18.02;;;12.65;;
46288;SDS011;63105;46.158;14.604;2022-12-07T15:24:07;19.55;;;12.80;;
46288;SDS011;63105;46.158;14.604;2022-12-07T15:26:33;20.77;;;13.30;;
46288;SDS011;63105;46.158;14.604;2022-12-07T15:28:58;20.05;;;13.02;;
46288;SDS011;63105;46.158;14.604;2022-12-07T15:31:23;18.50;;;12.27;;
46288;SDS011;63105;46.158;14.604;2022-12-07T15:33:48;19.80;;;13.13;;
46288;SDS011;63105;46.158;14.604;2022-12-07T15:36:18;19.90;;;13.18;;
46288;SDS011;63105;46.158;14.604;2022-12-07T15:38:43;20.33;;;13.57;;
46288;SDS011;63105;46.158;14.604;2022-12-07T15:41:08;17.92;;;11.93;;
46288;SDS011;63105;46.158;14.604;2022-12-07T15:43:34;20.05;;;13.20;;
46288;SDS011;63105;46.158;14.604;2022-12-07T15:46:19;20.42;;;13.05;;
46288;SDS011;63105;46.158;14.604;2022-12-07T15:48:45;20.27;;;12.83;;
46288;SDS011;63105;46.158;14.604;2022-12-07T15:51:10;17.33;;;12.18;;
46288;SDS011;63105;46.158;14.604;2022-12-07T15:53:36;19.60;;;12.75;;
46288;SDS011;63105;46.158;14.604;2022-12-07T15:56:01;18.90;;;12.32;;
46288;SDS011;63105;46.158;14.604;2022-12-07T15:58:30;20.15;;;13.52;;
46288;SDS011;63105;46.158;14.604;2022-12-07T16:00:56;19.00;;;12.93;;
46288;SDS011;63105;46.158;14.604;2022-12-07T16:03:21;16.35;;;12.27;;
46288;SDS011;63105;46.158;14.604;2022-12-07T16:05:50;18.75;;;12.95;;
46288;SDS011;63105;46.158;14.604;2022-12-07T16:08:15;18.52;;;12.38;;
46288;SDS011;63105;46.158;14.604;2022-12-07T16:10:40;19.43;;;13.13;;
46288;SDS011;63105;46.158;14.604;2022-12-07T16:13:08;16.98;;;12.05;;
46288;SDS011;63105;46.158;14.604;2022-12-07T16:15:37;17.27;;;12.25;;
46288;SDS011;63105;46.158;14.604;2022-12-07T16:18:02;18.08;;;13.18;;